createdAt,value
2023-04-21T00:01:29.642Z,13.32
2023-04-21T00:03:56.996Z,13.15
2023-04-21T00:06:24.311Z,13.23
2023-04-21T00:08:52.011Z,14.60
2023-04-21T00:11:19.365Z,13.82
2023-04-21T00:13:46.408Z,14.02
2023-04-21T00:16:14.033Z,14.45
2023-04-21T00:18:41.727Z,15.68
2023-04-21T00:21:09.312Z,16.80
2023-04-21T00:23:36.694Z,17.55
2023-04-21T00:26:03.767Z,18.45
2023-04-21T00:28:31.319Z,15.27
2023-04-21T00:30:59.115Z,14.95
2023-04-21T00:33:26.496Z,14.90
2023-04-21T00:35:57.019Z,17.10
2023-04-21T00:38:24.495Z,15.98
2023-04-21T00:40:51.881Z,16.95
2023-04-21T00:43:19.047Z,15.18
2023-04-21T00:45:47.058Z,15.60
2023-04-21T00:48:14.257Z,15.77
2023-04-21T00:50:41.905Z,15.55
2023-04-21T00:53:09.566Z,13.63
2023-04-21T00:55:36.624Z,12.68
2023-04-21T00:58:03.944Z,13.90
2023-04-21T01:00:31.758Z,13.50
2023-04-21T01:03:00.629Z,12.68
2023-04-21T01:05:27.722Z,14.80
2023-04-21T01:07:55.277Z,14.15
2023-04-21T01:10:23.857Z,13.98
2023-04-21T01:12:51.617Z,13.60
2023-04-21T01:15:19.379Z,13.45
2023-04-21T01:17:47.358Z,12.45
2023-04-21T01:20:14.544Z,10.63
2023-04-21T01:22:42.094Z,10.55
2023-04-21T01:25:09.605Z,10.02
2023-04-21T01:27:37.892Z,10.02
2023-04-21T01:30:07.179Z,9.77
2023-04-21T01:32:35.897Z,12.18
2023-04-21T01:35:03.478Z,11.75
2023-04-21T01:37:31.611Z,11.30
2023-04-21T01:40:01.043Z,10.50
2023-04-21T01:42:28.816Z,9.43
2023-04-21T01:44:58.633Z,8.75
2023-04-21T01:47:26.523Z,7.50
2023-04-21T01:49:53.564Z,7.18
2023-04-21T01:52:21.473Z,8.20
2023-04-21T01:54:49.377Z,6.45
2023-04-21T01:57:16.651Z,6.32
2023-04-21T01:59:44.552Z,5.43
2023-04-21T02:02:12.064Z,6.18
2023-04-21T02:04:39.200Z,6.78
2023-04-21T02:07:06.757Z,7.78
2023-04-21T02:09:34.224Z,6.43
2023-04-21T02:12:02.076Z,6.43
2023-04-21T02:14:29.453Z,7.47
2023-04-21T02:16:57.006Z,7.15
2023-04-21T02:19:24.418Z,6.03
2023-04-21T02:21:52.095Z,6.25
2023-04-21T02:24:22.071Z,7.40
2023-04-21T02:26:49.489Z,7.38
2023-04-21T02:29:17.009Z,7.07
2023-04-21T02:31:58.939Z,6.95
2023-04-21T02:34:30.744Z,6.95
2023-04-21T02:36:59.050Z,6.32
2023-04-21T02:39:26.422Z,6.28
2023-04-21T02:41:54.060Z,6.30
2023-04-21T02:44:21.433Z,6.72
2023-04-21T02:46:48.614Z,6.38
2023-04-21T02:49:16.127Z,7.88
2023-04-21T02:51:43.504Z,7.07
2023-04-21T02:54:10.821Z,6.90
2023-04-21T02:56:38.354Z,6.40
2023-04-21T02:59:06.843Z,6.15
2023-04-21T03:01:34.066Z,6.10
2023-04-21T03:04:01.350Z,5.88
2023-04-21T03:06:28.572Z,6.80
2023-04-21T03:08:56.381Z,5.80
2023-04-21T03:11:24.270Z,5.75
2023-04-21T03:13:53.577Z,4.43
2023-04-21T03:16:21.585Z,6.68
2023-04-21T03:18:48.706Z,5.45
2023-04-21T03:21:16.292Z,6.25
2023-04-21T03:23:43.703Z,5.65
2023-04-21T03:26:11.889Z,5.97
2023-04-21T03:28:39.108Z,6.13
2023-04-21T03:31:06.383Z,5.20
2023-04-21T03:33:34.139Z,5.47
2023-04-21T03:36:01.631Z,5.55
2023-04-21T03:38:30.962Z,5.80
2023-04-21T03:40:58.326Z,5.15
2023-04-21T03:43:25.594Z,5.00
2023-04-21T03:45:53.029Z,6.00
2023-04-21T03:48:20.416Z,5.20
2023-04-21T03:50:47.506Z,5.32
2023-04-21T03:53:14.909Z,5.00
2023-04-21T03:55:41.971Z,4.65
2023-04-21T03:58:09.384Z,4.90
2023-04-21T04:00:36.922Z,4.43
2023-04-21T04:03:04.400Z,4.82
2023-04-21T04:05:31.801Z,5.20
2023-04-21T04:07:59.370Z,3.90
2023-04-21T04:10:26.375Z,3.83
2023-04-21T04:12:55.051Z,4.50
2023-04-21T04:15:22.090Z,5.13
2023-04-21T04:17:50.119Z,4.38
2023-04-21T04:20:17.800Z,4.40
2023-04-21T04:22:45.295Z,5.90
2023-04-21T04:25:14.628Z,5.85
2023-04-21T04:27:41.733Z,4.90
2023-04-21T04:30:09.278Z,4.90
2023-04-21T04:32:39.344Z,7.50
2023-04-21T04:35:07.044Z,5.97
2023-04-21T04:37:36.540Z,3.90
2023-04-21T04:40:06.338Z,4.25
2023-04-21T04:42:34.437Z,3.53
2023-04-21T04:45:01.800Z,3.53
2023-04-21T04:47:29.468Z,3.72
2023-04-21T04:49:56.556Z,3.20
2023-04-21T04:52:24.157Z,3.92
2023-04-21T04:54:51.546Z,4.45
2023-04-21T04:57:19.108Z,4.53
2023-04-21T04:59:47.043Z,3.47
2023-04-21T05:02:14.222Z,3.40
2023-04-21T05:04:41.521Z,3.58
2023-04-21T05:07:08.855Z,3.50
2023-04-21T05:09:36.349Z,3.47
2023-04-21T05:12:03.823Z,3.90
2023-04-21T05:14:31.234Z,4.00
2023-04-21T05:16:58.662Z,4.82
2023-04-21T05:19:26.072Z,3.13
2023-04-21T05:21:53.963Z,2.97
2023-04-21T05:24:24.105Z,3.20
2023-04-21T05:26:51.236Z,3.92
2023-04-21T05:29:18.658Z,3.92
2023-04-21T05:31:46.448Z,4.57
2023-04-21T05:34:13.699Z,5.00
2023-04-21T05:36:43.790Z,4.47
2023-04-21T05:39:11.242Z,4.10
2023-04-21T05:41:38.430Z,4.15
2023-04-21T05:44:05.987Z,4.00
2023-04-21T05:46:34.510Z,12.88
2023-04-21T05:49:04.695Z,7.28
2023-04-21T05:51:32.386Z,15.00
2023-04-21T05:53:59.892Z,11.55
2023-04-21T05:56:27.413Z,4.72
2023-04-21T05:58:54.858Z,4.38
2023-04-21T06:01:22.307Z,6.75
2023-04-21T06:03:50.366Z,5.20
2023-04-21T06:06:17.903Z,4.40
2023-04-21T06:08:45.707Z,4.95
2023-04-21T06:11:16.032Z,4.97
2023-04-21T06:13:43.759Z,4.00
2023-04-21T06:16:11.149Z,5.25
2023-04-21T06:18:38.473Z,4.22
2023-04-21T06:21:05.770Z,4.00
2023-04-21T06:23:32.956Z,4.65
2023-04-21T06:26:05.519Z,4.10
2023-04-21T06:28:33.748Z,3.55
2023-04-21T06:31:01.574Z,4.05
2023-04-21T06:33:29.472Z,3.83
2023-04-21T06:35:56.646Z,4.53
2023-04-21T06:38:23.754Z,3.92
2023-04-21T06:40:51.047Z,3.90
2023-04-21T06:43:18.200Z,5.03
2023-04-21T06:45:45.592Z,7.38
2023-04-21T06:48:13.212Z,6.00
2023-04-21T06:50:40.802Z,4.93
2023-04-21T06:53:09.608Z,4.60
2023-04-21T06:55:36.697Z,4.50
2023-04-21T06:58:04.337Z,4.53
2023-04-21T07:00:31.393Z,4.85
2023-04-21T07:02:58.881Z,4.90
2023-04-21T07:05:26.123Z,4.90
2023-04-21T07:07:55.684Z,4.28
2023-04-21T07:10:23.633Z,4.70
2023-04-21T07:12:50.696Z,5.07
2023-04-21T07:15:17.938Z,4.88
2023-04-21T07:17:45.111Z,4.82
2023-04-21T07:20:12.877Z,5.28
2023-04-21T07:22:40.478Z,4.57
2023-04-21T07:25:08.207Z,4.63
2023-04-21T07:27:38.613Z,4.20
2023-04-21T07:30:06.736Z,4.28
2023-04-21T07:32:34.515Z,4.47
2023-04-21T07:35:02.413Z,4.80
2023-04-21T07:37:29.650Z,6.00
2023-04-21T07:39:56.855Z,6.50
2023-04-21T07:42:24.134Z,5.15
2023-04-21T07:44:51.379Z,5.30
2023-04-21T07:47:18.718Z,5.70
2023-04-21T07:49:45.975Z,4.43
2023-04-21T07:52:13.183Z,5.10
2023-04-21T07:54:40.255Z,4.75
2023-04-21T07:57:08.000Z,5.57
2023-04-21T07:59:35.526Z,7.57
2023-04-21T08:02:02.967Z,5.75
2023-04-21T08:04:30.873Z,6.13
2023-04-21T08:06:59.120Z,7.07
2023-04-21T08:09:26.969Z,6.70
2023-04-21T08:11:55.302Z,6.35
2023-04-21T08:14:22.547Z,6.25
2023-04-21T08:16:49.962Z,6.93
2023-04-21T08:19:17.604Z,5.72
2023-04-21T08:21:44.807Z,6.65
2023-04-21T08:24:12.575Z,6.32
2023-04-21T08:26:40.108Z,6.28
2023-04-21T08:29:09.885Z,6.20
2023-04-21T08:31:37.195Z,6.80
2023-04-21T08:34:04.680Z,6.93
2023-04-21T08:36:32.023Z,6.22
2023-04-21T08:38:59.612Z,6.30
2023-04-21T08:41:26.914Z,6.45
2023-04-21T08:43:54.031Z,7.10
2023-04-21T08:46:21.401Z,6.30
2023-04-21T08:48:48.581Z,5.25
2023-04-21T08:51:21.461Z,4.85
2023-04-21T08:53:48.833Z,6.32
2023-04-21T08:56:16.166Z,6.43
2023-04-21T08:58:44.019Z,6.38
2023-04-21T09:01:11.863Z,7.60
2023-04-21T09:03:39.517Z,12.80
2023-04-21T09:06:08.716Z,7.32
2023-04-21T09:08:39.537Z,5.60
2023-04-21T09:11:07.223Z,7.05
2023-04-21T09:13:35.526Z,7.55
2023-04-21T09:16:18.175Z,8.20
2023-04-21T09:18:46.032Z,8.35
2023-04-21T09:21:17.573Z,7.97
2023-04-21T09:23:44.651Z,7.10
2023-04-21T09:26:12.072Z,7.00
2023-04-21T09:28:46.884Z,6.90
2023-04-21T09:31:19.749Z,6.45
2023-04-21T09:33:57.928Z,8.60
2023-04-21T09:36:28.487Z,7.95
2023-04-21T09:39:20.597Z,6.32
2023-04-21T09:41:44.759Z,5.95
2023-04-21T09:44:12.285Z,7.30
2023-04-21T09:46:39.469Z,4.78
2023-04-21T09:49:07.098Z,6.22
2023-04-21T09:51:55.556Z,3.70
2023-04-21T09:56:53.863Z,7.05
2023-04-21T09:59:24.816Z,5.70
2023-04-21T10:01:52.550Z,5.13
2023-04-21T10:04:20.461Z,4.47
2023-04-21T10:06:48.610Z,7.40
2023-04-21T10:09:16.402Z,9.73
2023-04-21T10:11:44.206Z,6.60
2023-04-21T10:14:11.577Z,10.93
2023-04-21T10:16:39.073Z,10.02
2023-04-21T10:19:26.113Z,6.38
2023-04-21T10:21:56.972Z,5.07
2023-04-21T10:24:24.080Z,6.93
2023-04-21T10:26:54.062Z,8.85
2023-04-21T10:29:56.156Z,9.07
2023-04-21T10:32:43.355Z,8.50
2023-04-21T10:35:11.924Z,11.30
2023-04-21T10:37:41.130Z,9.68
2023-04-21T10:40:43.205Z,9.27
2023-04-21T10:43:47.210Z,9.82
2023-04-21T10:46:35.789Z,10.32
2023-04-21T10:49:10.349Z,9.30
2023-04-21T10:51:59.649Z,6.82
2023-04-21T10:54:27.716Z,15.90
2023-04-21T10:56:55.728Z,15.00
2023-04-21T10:59:23.961Z,11.43
2023-04-21T11:01:51.415Z,11.52
2023-04-21T11:04:20.488Z,6.50
2023-04-21T11:07:16.737Z,7.00
2023-04-21T11:09:45.785Z,7.25
2023-04-21T11:12:15.477Z,6.88
2023-04-21T11:14:43.769Z,7.03
2023-04-21T11:17:12.216Z,7.22
2023-04-21T11:19:39.576Z,7.57
2023-04-21T11:22:10.056Z,7.75
2023-04-21T11:24:37.709Z,7.72
2023-04-21T11:27:08.471Z,8.70
2023-04-21T11:29:36.195Z,8.65
2023-04-21T11:32:08.282Z,9.35
2023-04-21T11:34:39.253Z,6.07
2023-04-21T11:37:16.543Z,7.32
2023-04-21T11:39:44.377Z,6.32
2023-04-21T11:42:11.836Z,14.00
2023-04-21T11:44:43.116Z,9.70
2023-04-21T11:47:17.831Z,11.68
2023-04-21T11:50:04.205Z,14.80
2023-04-21T11:52:33.368Z,11.75
2023-04-21T11:55:05.376Z,11.75
2023-04-21T11:57:33.273Z,11.65
2023-04-21T12:00:01.960Z,10.52
2023-04-21T12:02:33.475Z,10.52
2023-04-21T12:05:02.219Z,11.48
2023-04-21T12:07:33.976Z,10.00
2023-04-21T12:10:02.479Z,10.90
2023-04-21T12:12:29.704Z,10.80
2023-04-21T12:14:57.051Z,8.70
2023-04-21T12:17:24.479Z,9.05
2023-04-21T12:19:51.661Z,8.40
2023-04-21T12:22:19.000Z,8.50
2023-04-21T12:24:46.521Z,11.68
2023-04-21T12:27:13.976Z,10.88
2023-04-21T12:29:44.116Z,14.07
2023-04-21T12:32:11.736Z,12.52
2023-04-21T12:34:39.118Z,13.35
2023-04-21T12:37:07.419Z,11.18
2023-04-21T12:39:34.922Z,19.08
2023-04-21T12:42:02.246Z,20.30
2023-04-21T12:44:29.809Z,14.80
2023-04-21T12:46:57.358Z,13.95
2023-04-21T12:49:25.470Z,13.93
2023-04-21T12:51:52.897Z,14.25
2023-04-21T12:54:20.290Z,21.58
2023-04-21T12:56:49.846Z,32.47
2023-04-21T12:59:16.898Z,21.63
2023-04-21T13:01:44.142Z,15.40
2023-04-21T13:04:11.546Z,15.85
2023-04-21T13:06:39.503Z,13.07
2023-04-21T13:09:09.262Z,11.38
2023-04-21T13:11:36.374Z,10.65
2023-04-21T13:14:06.519Z,24.13
2023-04-21T13:16:33.733Z,23.52
2023-04-21T13:19:01.146Z,25.85
2023-04-21T13:21:28.301Z,25.80
2023-04-21T13:23:57.414Z,51.85
2023-04-21T13:26:24.639Z,25.88
2023-04-21T13:28:52.077Z,21.17
2023-04-21T13:31:19.477Z,19.48
2023-04-21T13:33:46.807Z,18.50
2023-04-21T13:36:14.218Z,20.88
2023-04-21T13:38:41.838Z,33.63
2023-04-21T13:41:09.321Z,38.40
2023-04-21T13:43:36.695Z,40.95
2023-04-21T13:46:03.771Z,41.80
2023-04-21T13:48:31.302Z,40.25
2023-04-21T13:50:58.640Z,44.30
2023-04-21T13:53:26.648Z,47.85
2023-04-21T13:55:56.648Z,38.13
2023-04-21T13:58:23.986Z,26.42
2023-04-21T14:00:51.367Z,22.45
2023-04-21T14:03:19.064Z,21.33
2023-04-21T14:05:46.886Z,34.42
2023-04-21T14:08:14.201Z,16.15
2023-04-21T14:10:41.536Z,16.60
2023-04-21T14:13:12.826Z,19.80
2023-04-21T14:15:44.921Z,19.38
2023-04-21T14:18:13.319Z,16.85
2023-04-21T14:20:40.833Z,18.17
2023-04-21T14:23:08.147Z,22.38
2023-04-21T14:25:35.681Z,20.92
2023-04-21T14:28:06.992Z,38.58
2023-04-21T14:30:38.908Z,28.88
2023-04-21T14:33:06.412Z,15.00
2023-04-21T14:35:33.553Z,26.52
2023-04-21T14:38:01.076Z,22.65
2023-04-21T14:40:28.268Z,26.05
2023-04-21T14:42:57.768Z,27.05
2023-04-21T14:45:25.537Z,25.20
2023-04-21T14:47:53.449Z,22.73
2023-04-21T14:50:22.408Z,32.83
2023-04-21T14:52:49.873Z,41.78
2023-04-21T14:55:18.569Z,43.72
2023-04-21T14:57:47.028Z,48.33
2023-04-21T15:00:14.737Z,51.15
2023-04-21T15:02:42.287Z,55.88
2023-04-21T15:05:09.721Z,49.55
2023-04-21T15:07:37.104Z,51.10
2023-04-21T15:10:04.720Z,52.58
2023-04-21T15:12:32.697Z,55.10
2023-04-21T15:15:01.029Z,59.72
2023-04-21T15:17:28.468Z,53.55
2023-04-21T15:19:56.170Z,44.40
2023-04-21T15:22:23.503Z,40.22
2023-04-21T15:24:53.131Z,38.63
2023-04-21T15:27:21.709Z,38.22
2023-04-21T15:29:49.341Z,34.97
2023-04-21T15:32:16.291Z,39.85
2023-04-21T15:34:43.491Z,35.53
2023-04-21T15:37:14.218Z,35.67
2023-04-21T15:39:41.417Z,35.38
2023-04-21T15:42:09.280Z,33.05
2023-04-21T15:44:38.796Z,33.88
2023-04-21T15:47:06.652Z,31.38
2023-04-21T15:49:34.471Z,28.80
2023-04-21T15:52:03.635Z,27.70
2023-04-21T15:54:34.028Z,27.65
2023-04-21T15:57:05.120Z,24.55
2023-04-21T15:59:34.735Z,24.77
2023-04-21T16:02:02.419Z,24.23
2023-04-21T16:04:29.816Z,25.15
2023-04-21T16:06:57.231Z,27.90
2023-04-21T16:09:24.322Z,25.08
2023-04-21T16:11:51.853Z,27.30
2023-04-21T16:14:19.019Z,28.08
2023-04-21T16:16:46.719Z,27.42
2023-04-21T16:19:17.175Z,29.83
2023-04-21T16:21:44.373Z,30.83
2023-04-21T16:24:11.985Z,31.90
2023-04-21T16:26:39.216Z,33.13
2023-04-21T16:29:07.088Z,35.00
2023-04-21T16:31:34.530Z,36.50
2023-04-21T16:34:01.675Z,37.60
2023-04-21T16:36:30.806Z,36.95
2023-04-21T16:38:58.374Z,37.97
2023-04-21T16:41:25.941Z,37.10
2023-04-21T16:43:53.194Z,30.00
2023-04-21T16:46:20.847Z,32.70
2023-04-21T16:48:48.435Z,31.67
2023-04-21T16:51:15.502Z,30.35
2023-04-21T16:53:42.763Z,32.90
2023-04-21T16:56:10.098Z,29.60
2023-04-21T16:58:37.496Z,33.22
2023-04-21T17:01:07.114Z,33.88
2023-04-21T17:03:35.126Z,33.17
2023-04-21T17:06:09.227Z,33.75
2023-04-21T17:08:37.344Z,31.42
2023-04-21T17:11:04.990Z,29.88
2023-04-21T17:13:34.235Z,32.90
2023-04-21T17:16:01.602Z,31.35
2023-04-21T17:18:29.272Z,32.53
2023-04-21T17:20:56.705Z,33.40
2023-04-21T17:23:23.747Z,30.70
2023-04-21T17:25:51.525Z,31.08
2023-04-21T17:28:18.722Z,29.63
2023-04-21T17:30:46.795Z,31.17
2023-04-21T17:33:17.334Z,31.20
2023-04-21T17:35:59.920Z,31.60
2023-04-21T17:38:30.194Z,30.02
2023-04-21T17:40:57.241Z,24.42
2023-04-21T17:43:24.601Z,25.60
2023-04-21T17:45:52.159Z,24.13
2023-04-21T17:48:22.224Z,24.73
2023-04-21T17:50:49.432Z,24.60
2023-04-21T17:53:17.461Z,23.35
2023-04-21T17:55:45.328Z,23.10
2023-04-21T17:58:12.784Z,21.52
2023-04-21T18:00:40.533Z,21.00
2023-04-21T18:03:08.278Z,23.05
2023-04-21T18:05:35.428Z,22.67
2023-04-21T18:08:03.013Z,21.13
2023-04-21T18:10:30.248Z,20.75
2023-04-21T18:12:58.073Z,21.08
2023-04-21T18:15:25.440Z,19.60
2023-04-21T18:17:53.289Z,17.85
2023-04-21T18:20:20.810Z,19.27
2023-04-21T18:22:49.651Z,20.85
2023-04-21T18:25:27.301Z,21.73
2023-04-21T18:28:05.574Z,20.80
2023-04-21T18:30:33.145Z,20.35
2023-04-21T18:33:00.609Z,22.95
2023-04-21T18:35:28.177Z,24.48
2023-04-21T18:37:55.310Z,24.02
2023-04-21T18:40:22.635Z,27.35
2023-04-21T18:42:49.632Z,24.35
2023-04-21T18:45:17.091Z,26.75
2023-04-21T18:47:45.603Z,26.00
2023-04-21T18:50:13.495Z,24.25
2023-04-21T18:52:40.492Z,25.65
2023-04-21T18:55:08.743Z,25.80
2023-04-21T18:57:36.514Z,26.40
2023-04-21T19:00:06.629Z,25.83
2023-04-21T19:02:36.534Z,22.95
2023-04-21T19:05:04.898Z,23.20
2023-04-21T19:07:31.946Z,22.30
2023-04-21T19:09:59.338Z,22.45
2023-04-21T19:12:29.810Z,21.75
2023-04-21T19:14:57.121Z,18.63
2023-04-21T19:17:24.634Z,20.77
2023-04-21T19:19:51.725Z,22.45
2023-04-21T19:22:19.959Z,21.30
2023-04-21T19:24:47.338Z,19.50
2023-04-21T19:27:14.765Z,21.60
2023-04-21T19:29:42.647Z,24.75
2023-04-21T19:32:09.821Z,22.67
2023-04-21T19:34:37.383Z,23.15
2023-04-21T19:37:04.964Z,24.10
2023-04-21T19:39:32.564Z,23.30
2023-04-21T19:42:00.709Z,23.95
2023-04-21T19:44:28.156Z,26.38
2023-04-21T19:46:55.298Z,25.85
2023-04-21T19:49:24.737Z,26.60
2023-04-21T19:51:51.953Z,25.02
2023-04-21T19:54:19.280Z,26.58
2023-04-21T19:56:46.857Z,24.38
2023-04-21T19:59:14.261Z,26.52
2023-04-21T20:01:41.621Z,26.30
2023-04-21T20:04:11.894Z,27.02
2023-04-21T20:06:39.996Z,28.23
2023-04-21T20:09:07.799Z,25.00
2023-04-21T20:11:35.530Z,24.80
2023-04-21T20:14:03.187Z,24.92
2023-04-21T20:16:31.497Z,25.25
2023-04-21T20:18:59.060Z,23.45
2023-04-21T20:21:27.231Z,19.58
2023-04-21T20:23:54.600Z,23.75
2023-04-21T20:26:22.199Z,20.88
2023-04-21T20:28:49.555Z,23.25
2023-04-21T20:31:18.679Z,23.30
2023-04-21T20:33:46.076Z,19.23
2023-04-21T20:36:13.203Z,19.33
2023-04-21T20:38:41.661Z,21.40
2023-04-21T20:41:09.482Z,21.70
2023-04-21T20:43:36.507Z,20.33
2023-04-21T20:46:04.205Z,20.13
2023-04-21T20:48:31.286Z,20.02
2023-04-21T20:50:58.644Z,20.88
2023-04-21T20:53:26.802Z,17.60
2023-04-21T20:55:53.857Z,17.00
2023-04-21T20:58:24.662Z,19.38
2023-04-21T21:00:51.946Z,19.17
2023-04-21T21:03:19.847Z,18.90
2023-04-21T21:05:47.410Z,16.67
2023-04-21T21:08:19.553Z,17.85
2023-04-21T21:10:46.907Z,17.02
2023-04-21T21:13:14.155Z,15.70
2023-04-21T21:15:41.739Z,17.10
2023-04-21T21:18:09.120Z,18.05
2023-04-21T21:20:36.606Z,15.95
2023-04-21T21:23:03.932Z,18.42
2023-04-21T21:25:31.515Z,17.40
2023-04-21T21:28:02.147Z,18.27
2023-04-21T21:30:29.305Z,15.07
2023-04-21T21:32:56.802Z,15.27
2023-04-21T21:35:23.931Z,16.08
2023-04-21T21:37:51.225Z,14.30
2023-04-21T21:40:18.562Z,15.23
2023-04-21T21:42:46.291Z,15.63
2023-04-21T21:45:13.414Z,16.35
2023-04-21T21:47:43.159Z,15.15
2023-04-21T21:50:13.136Z,16.20
2023-04-21T21:52:40.875Z,14.75
2023-04-21T21:55:08.631Z,15.52
2023-04-21T21:57:36.727Z,18.00
2023-04-21T22:00:08.477Z,17.02
2023-04-21T22:02:35.884Z,17.20
2023-04-21T22:05:05.817Z,22.25
2023-04-21T22:07:32.918Z,19.40
2023-04-21T22:10:00.294Z,20.95
2023-04-21T22:12:27.422Z,20.55
2023-04-21T22:14:57.258Z,19.42
2023-04-21T22:17:25.127Z,20.67
2023-04-21T22:19:53.499Z,21.08
2023-04-21T22:22:20.685Z,24.95
2023-04-21T22:24:50.414Z,27.40
2023-04-21T22:27:17.810Z,27.00
2023-04-21T22:29:44.748Z,24.45
2023-04-21T22:32:12.168Z,25.67
2023-04-21T22:34:39.207Z,23.25
2023-04-21T22:37:06.571Z,24.02
2023-04-21T22:39:34.089Z,22.50
2023-04-21T22:42:02.278Z,22.25
2023-04-21T22:44:29.951Z,19.05
2023-04-21T22:46:57.256Z,19.83
2023-04-21T22:49:24.705Z,18.23
2023-04-21T22:51:52.130Z,19.38
2023-04-21T22:54:19.057Z,19.33
2023-04-21T22:56:46.296Z,18.60
2023-04-21T22:59:13.363Z,18.38
2023-04-21T23:01:40.719Z,18.25
2023-04-21T23:04:08.626Z,19.02
2023-04-21T23:06:35.782Z,19.05
2023-04-21T23:09:03.836Z,19.20
2023-04-21T23:11:31.522Z,22.63
2023-04-21T23:13:59.255Z,22.48
2023-04-21T23:16:26.510Z,20.05
2023-04-21T23:18:54.012Z,19.70
2023-04-21T23:21:21.410Z,18.90
2023-04-21T23:23:49.195Z,20.08
2023-04-21T23:26:16.772Z,19.95
2023-04-21T23:28:43.861Z,21.25
2023-04-21T23:31:11.248Z,27.27
2023-04-21T23:33:38.581Z,27.55
2023-04-21T23:36:06.329Z,27.67
2023-04-21T23:38:33.409Z,20.55
2023-04-21T23:41:00.822Z,20.50
2023-04-21T23:43:28.710Z,19.15
2023-04-21T23:45:55.737Z,20.70
2023-04-21T23:48:23.145Z,21.10
2023-04-21T23:50:50.389Z,21.17
2023-04-21T23:53:17.770Z,35.22
2023-04-21T23:55:45.850Z,36.63
2023-04-21T23:58:13.510Z,34.58
